Time;durP1;ratioP1;P1;durP2;ratioP2;P2;SDS_P1;SDS_P2;PMS_P1;PMS_P2;Temp;Humidity;BMP_temperature;BMP_pressure;BME280_temperature;BME280_humidity;BME280_pressure;Samples;Min_cycle;Max_cycle;Signal;HPM_P1;HPM_P2
2023/05/19 00:01:19;;;;;;;;;;;;;;;17.59;47.44;102286.25;7349221;19;20003;-66
2023/05/19 00:03:56;;;;;;;;;;;;;;;17.60;46.39;102290.63;7355637;19;19918;-65
2023/05/19 00:06:23;;;;;;;;;;;;;;;17.40;47.15;102257.72;7349590;19;19964;-66
2023/05/19 00:08:49;;;;;;;;;;;;;;;17.60;47.16;102303.84;7355388;19;20311;-65
2023/05/19 00:11:15;;;;;;;;;;;;;;;17.61;47.57;102299.41;7356212;19;19915;-65
2023/05/19 00:13:40;;;;;;;;;;;;;;;17.60;47.40;102302.97;7353127;19;19926;-65
2023/05/19 00:16:06;;;;;;;;;;;;;;;17.61;47.87;102304.69;7355071;19;19943;-65
2023/05/19 00:18:32;;;;;;;;;;;;;;;17.60;47.54;102303.84;7349649;19;21228;-65
2023/05/19 00:20:57;;;;;;;;;;;;;;;17.61;47.93;102299.41;7348445;19;19922;-66
2023/05/19 00:23:22;;;;;;;;;;;;;;;17.61;47.96;102299.41;7350493;19;20731;-63
2023/05/19 00:25:47;;;;;;;;;;;;;;;17.61;47.54;102299.41;7352689;19;19923;-66
2023/05/19 00:28:13;;;;;;;;;;;;;;;17.62;47.61;102309.94;7352280;19;19949;-65
2023/05/19 00:30:38;;;;;;;;;;;;;;;17.63;47.50;102319.59;7350577;19;20663;-66
2023/05/19 00:33:03;;;;;;;;;;;;;;;17.63;47.58;102324.88;7353843;19;20472;-65
2023/05/19 00:35:28;;;;;;;;;;;;;;;17.63;47.97;102324.88;7352348;19;19914;-65
2023/05/19 00:37:54;;;;;;;;;;;;;;;17.65;47.83;102330.13;7351973;19;19929;-66
2023/05/19 00:40:20;;;;;;;;;;;;;;;17.63;47.50;102330.16;7345357;19;19940;-65
2023/05/19 00:42:45;;;;;;;;;;;;;;;17.63;47.68;102334.56;7349171;19;19918;-66
2023/05/19 00:45:10;;;;;;;;;;;;;;;17.62;47.23;102327.56;7353060;19;20482;-65
2023/05/19 00:47:35;;;;;;;;;;;;;;;17.58;46.93;102326.75;7350510;19;19954;-66
2023/05/19 00:50:01;;;;;;;;;;;;;;;17.57;47.36;102324.16;7353118;19;19918;-65
2023/05/19 00:52:26;;;;;;;;;;;;;;;17.53;47.39;102333.94;7353369;19;19923;-65
2023/05/19 00:54:52;;;;;;;;;;;;;;;17.50;47.39;102328.75;7348744;19;19931;-67
2023/05/19 00:57:18;;;;;;;;;;;;;;;17.49;47.81;102334.09;7354539;19;19926;-66
2023/05/19 00:59:43;;;;;;;;;;;;;;;17.46;47.99;102342.06;7353491;19;20277;-66
2023/05/19 01:02:08;;;;;;;;;;;;;;;17.43;47.50;102337.72;7357050;19;20527;-65
2023/05/19 01:04:35;;;;;;;;;;;;;;;17.42;47.85;102340.41;7355715;19;20564;-65
2023/05/19 01:07:00;;;;;;;;;;;;;;;17.39;47.75;102341.38;7350047;19;19957;-65
2023/05/19 01:09:25;;;;;;;;;;;;;;;17.36;47.04;102347.59;7357752;19;20597;-66
2023/05/19 01:11:51;;;;;;;;;;;;;;;17.33;47.50;102338.84;7356672;19;20010;-65
2023/05/19 01:14:17;;;;;;;;;;;;;;;17.29;47.91;102346.00;7352458;19;19946;-66
2023/05/19 01:16:46;;;;;;;;;;;;;;;17.27;48.08;102342.53;7353721;19;19929;-65
2023/05/19 01:19:30;;;;;;;;;;;;;;;17.25;47.98;102339.06;7355760;19;19946;-63
2023/05/19 01:22:11;;;;;;;;;;;;;;;17.22;48.02;102339.13;7357221;19;19992;-65
2023/05/19 01:24:55;;;;;;;;;;;;;;;17.20;48.15;102330.38;7356177;19;19927;-66
2023/05/19 01:27:33;;;;;;;;;;;;;;;17.19;47.71;102323.38;7352164;19;19933;-66
2023/05/19 01:30:04;;;;;;;;;;;;;;;17.17;48.16;102321.66;7351063;19;19943;-65
2023/05/19 01:32:32;;;;;;;;;;;;;;;17.15;48.34;102316.44;7355461;19;19937;-65
2023/05/19 01:34:57;;;;;;;;;;;;;;;17.14;48.49;102319.97;7351786;19;20659;-65
2023/05/19 01:37:22;;;;;;;;;;;;;;;17.12;48.31;102327.06;7354849;19;19914;-65
2023/05/19 01:39:49;;;;;;;;;;;;;;;17.10;48.08;102323.59;7358004;19;19942;-64
2023/05/19 01:42:16;;;;;;;;;;;;;;;17.08;47.98;102328.03;7355950;19;19926;-65
2023/05/19 01:44:41;;;;;;;;;;;;;;;17.06;48.02;102329.84;7355657;19;20017;-66
2023/05/19 01:47:07;;;;;;;;;;;;;;;17.02;47.99;102321.13;7356439;19;21006;-66
2023/05/19 01:49:32;;;;;;;;;;;;;;;17.00;48.21;102330.84;7354614;19;20016;-66
2023/05/19 01:51:57;;;;;;;;;;;;;;;16.96;47.65;102323.03;7356386;19;19942;-65
2023/05/19 01:54:22;;;;;;;;;;;;;;;16.92;47.67;102324.00;7355992;19;19923;-65
2023/05/19 01:57:02;;;;;;;;;;;;;;;16.88;47.90;102327.63;7355623;19;19922;-65
2023/05/19 01:59:40;;;;;;;;;;;;;;;16.82;47.84;102329.50;7340407;19;19919;-65
2023/05/19 02:02:10;;;;;;;;;;;;;;;16.78;47.96;102329.63;7342785;19;19934;-66
2023/05/19 02:04:38;;;;;;;;;;;;;;;16.73;47.72;102319.19;7352661;19;19923;-65
2023/05/19 02:07:09;;;;;;;;;;;;;;;16.69;47.99;102320.13;7344876;19;20695;-65
2023/05/19 02:10:01;;;;;;;;;;;;;;;16.63;47.86;102328.16;7351264;19;20614;-65
2023/05/19 02:12:26;;;;;;;;;;;;;;;16.58;47.53;102327.41;7354313;19;20761;-65
2023/05/19 02:14:55;;;;;;;;;;;;;;;16.54;47.52;102333.63;7351977;19;19926;-66
2023/05/19 02:17:22;;;;;;;;;;;;;;;16.48;47.56;102339.03;7353365;19;19922;-65
2023/05/19 02:19:47;;;;;;;;;;;;;;;16.42;47.58;102332.09;7352789;19;19934;-65
2023/05/19 02:22:12;;;;;;;;;;;;;;;16.38;47.74;102337.50;7348015;19;19951;-65
2023/05/19 02:24:38;;;;;;;;;;;;;;;16.32;48.13;102344.63;7352422;19;19961;-66
2023/05/19 02:27:03;;;;;;;;;;;;;;;16.29;47.80;102330.66;7353476;19;20450;-65
2023/05/19 02:29:29;;;;;;;;;;;;;;;16.24;48.14;102329.88;7354111;19;19923;-66
2023/05/19 02:31:54;;;;;;;;;;;;;;;16.20;48.51;102339.59;7345861;19;19930;-66
2023/05/19 02:34:19;;;;;;;;;;;;;;;16.18;48.37;102330.88;7355973;19;19922;-65
2023/05/19 02:36:48;;;;;;;;;;;;;;;16.13;48.37;102340.63;7351911;19;19915;-65
2023/05/19 02:39:13;;;;;;;;;;;;;;;16.08;48.19;102339.84;7350262;19;22238;-65
2023/05/19 02:41:39;;;;;;;;;;;;;;;16.02;48.60;102345.25;7351543;19;19930;-65
2023/05/19 02:44:04;;;;;;;;;;;;;;;15.97;48.38;102344.47;7351725;19;19965;-65
2023/05/19 02:46:29;;;;;;;;;;;;;;;15.90;48.45;102348.97;7351088;19;20502;-65
2023/05/19 02:48:55;;;;;;;;;;;;;;;15.84;48.28;102343.81;7351905;19;19974;-65
2023/05/19 02:51:20;;;;;;;;;;;;;;;15.77;48.44;102345.69;7350792;19;20702;-65
2023/05/19 02:53:45;;;;;;;;;;;;;;;15.70;48.59;102346.69;7355832;19;19915;-65
2023/05/19 02:56:11;;;;;;;;;;;;;;;15.63;48.68;102347.69;7351131;19;19915;-66
2023/05/19 02:58:36;;;;;;;;;;;;;;;15.58;48.59;102344.25;7351041;19;19931;-66
2023/05/19 03:01:02;;;;;;;;;;;;;;;15.51;48.48;102339.97;7341957;19;20533;-63
2023/05/19 03:03:27;;;;;;;;;;;;;;;15.46;48.52;102339.16;7346190;19;19918;-65
2023/05/19 03:05:52;;;;;;;;;;;;;;;15.41;48.79;102346.28;7339610;19;19917;-65
2023/05/19 03:08:18;;;;;;;;;;;;;;;15.34;48.71;102347.28;7347341;19;20668;-65
2023/05/19 03:10:44;;;;;;;;;;;;;;;15.29;48.90;102353.47;7342977;19;21557;-65
2023/05/19 03:13:10;;;;;;;;;;;;;;;15.24;48.81;102357.94;7350197;19;20536;-65
2023/05/19 03:15:35;;;;;;;;;;;;;;;15.21;49.25;102354.50;7349255;19;19921;-65
2023/05/19 03:18:01;;;;;;;;;;;;;;;15.16;49.26;102357.22;7349235;19;19950;-65
2023/05/19 03:20:26;;;;;;;;;;;;;;;15.11;48.87;102353.78;7328824;19;20354;-66
2023/05/19 03:22:51;;;;;;;;;;;;;;;15.08;49.31;102355.59;7348666;19;19999;-65
2023/05/19 03:25:16;;;;;;;;;;;;;;;15.01;49.38;102352.19;7343938;19;19939;-65
2023/05/19 03:27:42;;;;;;;;;;;;;;;14.64;49.04;102300.09;7347323;19;20882;-64
2023/05/19 03:30:07;;;;;;;;;;;;;;;14.94;48.96;102350.53;7348600;19;19914;-66
2023/05/19 03:32:36;;;;;;;;;;;;;;;14.57;49.23;102308.09;7349598;19;19933;-65
2023/05/19 03:35:01;;;;;;;;;;;;;;;14.86;49.46;102368.19;7347701;19;19919;-65
2023/05/19 03:37:26;;;;;;;;;;;;;;;14.81;49.14;102363.00;7350347;19;19947;-65
2023/05/19 03:39:51;;;;;;;;;;;;;;;14.78;49.05;102365.66;7347945;19;19914;-65
2023/05/19 03:42:17;;;;;;;;;;;;;;;14.74;49.03;102349.03;7349699;19;20316;-66
2023/05/19 03:44:43;;;;;;;;;;;;;;;14.70;49.53;102351.72;7350242;19;20655;-65
2023/05/19 03:47:08;;;;;;;;;;;;;;;14.66;49.46;102360.56;7349390;19;20331;-65
2023/05/19 03:49:33;;;;;;;;;;;;;;;14.64;49.39;102372.84;7349972;19;19919;-65
2023/05/19 03:52:02;;;;;;;;;;;;;;;14.60;49.33;102361.53;7346977;19;20447;-65
2023/05/19 03:54:27;;;;;;;;;;;;;;;14.56;49.48;102369.47;7339240;19;19998;-66
2023/05/19 03:56:52;;;;;;;;;;;;;;;14.53;49.60;102375.59;7347649;19;19982;-65
2023/05/19 03:59:18;;;;;;;;;;;;;;;14.51;49.63;102374.78;7348736;19;19914;-65
2023/05/19 04:01:43;;;;;;;;;;;;;;;14.47;49.71;102375.66;7351381;19;19922;-65
2023/05/19 04:04:08;;;;;;;;;;;;;;;14.43;49.40;102372.19;7348005;19;19959;-65
2023/05/19 04:06:35;;;;;;;;;;;;;;;14.40;49.39;102380.13;7349683;19;19923;-65
2023/05/19 04:09:01;;;;;;;;;;;;;;;14.37;49.82;102379.28;7348659;19;20419;-63
2023/05/19 04:11:26;;;;;;;;;;;;;;;14.34;49.74;102395.06;7348214;19;19978;-65
2023/05/19 04:13:51;;;;;;;;;;;;;;;13.97;49.51;102332.44;7348901;19;19937;-66
2023/05/19 04:16:16;;;;;;;;;;;;;;;14.27;49.84;102389.91;7349581;19;19926;-65
2023/05/19 04:18:44;;;;;;;;;;;;;;;14.24;49.70;102400.47;7348073;19;19918;-65
2023/05/19 04:21:09;;;;;;;;;;;;;;;14.21;49.49;102396.97;7346838;19;19917;-65
2023/05/19 04:23:34;;;;;;;;;;;;;;;14.18;49.84;102403.13;7350425;19;19919;-65
2023/05/19 04:26:01;;;;;;;;;;;;;;;14.16;49.82;102402.28;7350780;19;19927;-65
2023/05/19 04:28:26;;;;;;;;;;;;;;;14.14;50.00;102406.69;7351881;19;20577;-66
2023/05/19 04:30:51;;;;;;;;;;;;;;;14.11;49.82;102409.34;7349206;19;19922;-65
2023/05/19 04:33:18;;;;;;;;;;;;;;;14.09;49.91;102418.09;7357214;19;19927;-65
2023/05/19 04:35:44;;;;;;;;;;;;;;;14.06;50.01;102411.16;7360316;19;19938;-65
2023/05/19 04:38:10;;;;;;;;;;;;;;;14.04;50.04;102410.31;7358479;19;20494;-65
2023/05/19 04:40:36;;;;;;;;;;;;;;;14.01;49.61;102418.19;7359116;19;19934;-65
2023/05/19 04:43:01;;;;;;;;;;;;;;;13.98;49.68;102421.72;7361844;19;19914;-65
2023/05/19 04:45:26;;;;;;;;;;;;;;;13.98;50.16;102428.72;7360177;19;19919;-65
2023/05/19 04:47:56;;;;;;;;;;;;;;;13.97;50.22;102427.00;7362150;19;19927;-65
2023/05/19 04:50:22;;;;;;;;;;;;;;;13.95;49.88;102434.88;7357669;19;19995;-66
2023/05/19 04:52:47;;;;;;;;;;;;;;;13.93;49.73;102425.25;7361514;19;19911;-65
2023/05/19 04:55:12;;;;;;;;;;;;;;;13.93;49.92;102415.63;7357682;19;19919;-65
2023/05/19 04:57:38;;;;;;;;;;;;;;;13.92;50.01;102419.16;7360161;19;19929;-65
2023/05/19 05:00:06;;;;;;;;;;;;;;;13.90;49.06;102426.19;7355538;19;19915;-66
2023/05/19 05:02:32;;;;;;;;;;;;;;;13.54;49.76;102364.38;7361686;19;19923;-66
2023/05/19 05:04:58;;;;;;;;;;;;;;;13.88;49.91;102427.94;7349538;19;19922;-65
2023/05/19 05:07:23;;;;;;;;;;;;;;;13.87;50.00;102430.56;7360169;19;19929;-65
2023/05/19 05:09:49;;;;;;;;;;;;;;;13.86;49.68;102428.84;7359487;19;19922;-66
2023/05/19 05:12:14;;;;;;;;;;;;;;;13.86;50.07;102423.59;7359947;19;19930;-65
2023/05/19 05:14:40;;;;;;;;;;;;;;;13.85;49.94;102421.84;7358344;19;20710;-65
2023/05/19 05:17:06;;;;;;;;;;;;;;;13.84;49.47;102423.63;7360204;19;19918;-65
2023/05/19 05:19:32;;;;;;;;;;;;;;;13.83;49.73;102434.09;7359897;19;19919;-65
2023/05/19 05:21:57;;;;;;;;;;;;;;;13.82;49.58;102438.50;7358627;19;20717;-66
2023/05/19 05:24:23;;;;;;;;;;;;;;;13.80;49.74;102428.91;7358769;19;19947;-65
2023/05/19 05:26:48;;;;;;;;;;;;;;;13.79;49.70;102421.88;7359284;19;19915;-65
2023/05/19 05:29:13;;;;;;;;;;;;;;;13.79;49.71;102417.53;7359752;19;20321;-65
2023/05/19 05:31:38;;;;;;;;;;;;;;;13.79;49.97;102414.00;7358864;19;19951;-65
2023/05/19 05:34:04;;;;;;;;;;;;;;;13.79;50.02;102430.66;7358579;19;19938;-63
2023/05/19 05:36:30;;;;;;;;;;;;;;;13.80;49.06;102432.41;7359292;19;19942;-67
2023/05/19 05:38:55;;;;;;;;;;;;;;;13.80;49.80;102426.28;7359297;19;20718;-64
2023/05/19 05:41:21;;;;;;;;;;;;;;;13.80;50.10;102431.53;7359708;19;19915;-65
2023/05/19 05:43:46;;;;;;;;;;;;;;;13.80;49.99;102427.16;7358668;19;20518;-65
2023/05/19 05:46:11;;;;;;;;;;;;;;;13.82;50.28;102432.38;7358805;19;19919;-65
2023/05/19 05:48:37;;;;;;;;;;;;;;;13.82;50.23;102435.00;7357153;19;19955;-66
2023/05/19 05:51:02;;;;;;;;;;;;;;;13.83;49.44;102428.84;7358087;19;19914;-65
2023/05/19 05:53:29;;;;;;;;;;;;;;;13.85;49.35;102427.09;7355656;19;19918;-65
2023/05/19 05:55:54;;;;;;;;;;;;;;;13.85;49.46;102427.09;7354112;19;19922;-65
2023/05/19 05:58:20;;;;;;;;;;;;;;;13.86;49.76;102420.97;7345767;19;19926;-65
2023/05/19 06:00:47;;;;;;;;;;;;;;;13.86;49.39;102434.09;7354307;19;19919;-65
2023/05/19 06:03:13;;;;;;;;;;;;;;;13.88;49.55;102432.31;7354940;19;19932;-66
2023/05/19 06:05:38;;;;;;;;;;;;;;;13.89;50.22;102420.91;7354676;19;19922;-65
2023/05/19 06:08:04;;;;;;;;;;;;;;;13.91;49.80;102427.03;7355012;19;21265;-65
2023/05/19 06:10:29;;;;;;;;;;;;;;;13.92;50.10;102434.03;7353407;19;20343;-65
2023/05/19 06:12:55;;;;;;;;;;;;;;;13.94;50.10;102432.28;7356632;19;20485;-65
2023/05/19 06:15:20;;;;;;;;;;;;;;;13.96;50.16;102435.75;7354242;19;20349;-65
2023/05/19 06:17:46;;;;;;;;;;;;;;;13.99;49.73;102430.50;7359628;19;19998;-65
2023/05/19 06:20:11;;;;;;;;;;;;;;;13.99;49.77;102420.84;7351974;19;19919;-64
2023/05/19 06:22:37;;;;;;;;;;;;;;;13.81;49.84;102404.38;7359171;19;19915;-65
2023/05/19 06:25:02;;;;;;;;;;;;;;;14.05;50.17;102443.56;7354693;19;19943;-65
2023/05/19 06:27:27;;;;;;;;;;;;;;;14.08;49.90;102433.00;7355572;19;19919;-67
2023/05/19 06:29:53;;;;;;;;;;;;;;;14.10;50.13;102422.50;7354888;19;19942;-65
2023/05/19 06:32:18;;;;;;;;;;;;;;;14.13;49.99;102423.31;7352113;19;19926;-65
2023/05/19 06:34:43;;;;;;;;;;;;;;;14.15;50.11;102432.06;7357657;19;20256;-65
2023/05/19 06:37:09;;;;;;;;;;;;;;;14.17;50.36;102422.41;7353157;19;19919;-65
2023/05/19 06:39:34;;;;;;;;;;;;;;;14.20;50.51;102413.66;7331731;19;19922;-65
2023/05/19 06:41:59;;;;;;;;;;;;;;;14.23;49.86;102414.47;7340107;19;19919;-59
2023/05/19 06:44:25;;;;;;;;;;;;;;;14.25;50.29;102420.59;7340941;19;20558;-59
2023/05/19 06:46:50;;;;;;;;;;;;;;;14.28;50.65;102420.53;7347660;19;20718;-59
2023/05/19 06:49:15;;;;;;;;;;;;;;;14.31;50.54;102429.28;7342981;19;19918;-60
2023/05/19 06:51:40;;;;;;;;;;;;;;;14.34;50.12;102426.63;7344325;19;20617;-59
2023/05/19 06:54:06;;;;;;;;;;;;;;;14.36;50.38;102420.47;7343623;19;20017;-60
2023/05/19 06:56:31;;;;;;;;;;;;;;;14.40;49.98;102426.56;7344803;19;19918;-60
2023/05/19 06:58:56;;;;;;;;;;;;;;;14.41;50.75;102436.19;7340399;19;19939;-59
2023/05/19 07:01:22;;;;;;;;;;;;;;;14.44;50.91;102437.00;7339330;19;19914;-59
2023/05/19 07:03:47;;;;;;;;;;;;;;;14.48;50.76;102445.78;7341728;19;19918;-60
2023/05/19 07:06:12;;;;;;;;;;;;;;;14.51;51.14;102443.13;7343675;19;20259;-59
2023/05/19 07:08:37;;;;;;;;;;;;;;;14.55;51.11;102436.94;7343662;19;19922;-59
2023/05/19 07:11:03;;;;;;;;;;;;;;;14.59;50.49;102443.88;7342211;19;19922;-59
2023/05/19 07:13:28;;;;;;;;;;;;;;;14.64;50.61;102447.31;7344258;19;19915;-60
2023/05/19 07:15:54;;;;;;;;;;;;;;;14.68;50.17;102450.81;7341748;19;19925;-59
2023/05/19 07:18:20;;;;;;;;;;;;;;;14.70;50.63;102457.81;7342289;19;19922;-59
2023/05/19 07:20:45;;;;;;;;;;;;;;;14.74;50.56;102469.13;7344653;19;20304;-60
2023/05/19 07:23:11;;;;;;;;;;;;;;;14.64;50.60;102463.09;7343640;19;19943;-59
2023/05/19 07:25:36;;;;;;;;;;;;;;;14.78;51.16;102482.22;7343673;19;20001;-61
2023/05/19 07:28:01;;;;;;;;;;;;;;;14.83;50.92;102481.31;7340468;19;19922;-60
2023/05/19 07:30:27;;;;;;;;;;;;;;;14.86;51.17;102484.78;7338759;19;20965;-60
2023/05/19 07:32:52;;;;;;;;;;;;;;;14.90;51.11;102477.72;7341138;19;19927;-60
2023/05/19 07:35:18;;;;;;;;;;;;;;;14.93;50.79;102486.44;7340555;19;19922;-60
2023/05/19 07:37:44;;;;;;;;;;;;;;;14.98;51.19;102478.50;7339285;19;19919;-60
2023/05/19 07:40:09;;;;;;;;;;;;;;;15.02;50.46;102472.31;7336605;19;19939;-59
2023/05/19 07:42:35;;;;;;;;;;;;;;;15.05;50.97;102475.78;7344961;19;19919;-60
2023/05/19 07:45:01;;;;;;;;;;;;;;;15.11;50.37;102474.81;7344051;19;19967;-60
2023/05/19 07:47:27;;;;;;;;;;;;;;;15.15;50.57;102470.38;7342630;19;19926;-59
2023/05/19 07:49:52;;;;;;;;;;;;;;;15.18;50.91;102473.84;7338903;19;19914;-60
2023/05/19 07:52:17;;;;;;;;;;;;;;;15.21;50.97;102468.53;7345357;19;19939;-60
2023/05/19 07:54:43;;;;;;;;;;;;;;;15.25;51.10;102472.84;7341874;19;19922;-59
2023/05/19 07:57:08;;;;;;;;;;;;;;;15.29;51.37;102471.94;7331077;19;20313;-60
2023/05/19 07:59:33;;;;;;;;;;;;;;;15.35;51.02;102472.72;7339848;19;19915;-60
2023/05/19 08:01:58;;;;;;;;;;;;;;;15.41;51.23;102475.28;7337250;19;19934;-60
2023/05/19 08:04:24;;;;;;;;;;;;;;;15.49;51.47;102465.50;7341048;19;20031;-59
2023/05/19 08:06:51;;;;;;;;;;;;;;;15.54;51.47;102463.66;7333925;19;19930;-60
2023/05/19 08:09:17;;;;;;;;;;;;;;;15.62;51.20;102471.47;7341257;19;19922;-59
2023/05/19 08:11:43;;;;;;;;;;;;;;;15.69;51.49;102478.41;7343673;19;19924;-59
2023/05/19 08:14:09;;;;;;;;;;;;;;;15.76;51.03;102486.19;7345173;19;19940;-60
2023/05/19 08:16:34;;;;;;;;;;;;;;;15.83;51.35;102482.56;7345748;19;19914;-59
2023/05/19 08:19:02;;;;;;;;;;;;;;;15.89;51.39;102486.84;7345503;19;19957;-60
2023/05/19 08:21:28;;;;;;;;;;;;;;;15.95;51.69;102486.75;7343670;19;19923;-59
2023/05/19 08:23:53;;;;;;;;;;;;;;;16.01;51.41;102491.03;7341881;19;19929;-59
2023/05/19 08:26:18;;;;;;;;;;;;;;;15.77;51.43;102442.28;7342921;19;19934;-60
2023/05/19 08:28:44;;;;;;;;;;;;;;;16.15;51.69;102502.22;7345101;19;19934;-60
2023/05/19 08:31:09;;;;;;;;;;;;;;;16.21;51.29;102494.22;7343653;19;19938;-60
2023/05/19 08:33:34;;;;;;;;;;;;;;;16.28;51.78;102505.53;7340435;19;19933;-60
2023/05/19 08:36:00;;;;;;;;;;;;;;;16.35;51.62;102497.47;7347583;19;20335;-60
2023/05/19 08:38:25;;;;;;;;;;;;;;;16.40;51.23;102493.91;7328591;19;19986;-60
2023/05/19 08:40:51;;;;;;;;;;;;;;;16.46;51.20;102501.69;7327915;19;19915;-60
2023/05/19 08:43:16;;;;;;;;;;;;;;;16.51;51.50;102491.91;7343813;19;19925;-60
2023/05/19 08:45:42;;;;;;;;;;;;;;;16.56;51.79;102484.78;7342705;19;19910;-60
2023/05/19 08:48:07;;;;;;;;;;;;;;;16.61;51.61;102482.94;7342846;19;20784;-60
2023/05/19 08:50:35;;;;;;;;;;;;;;;16.67;51.35;102482.81;7344027;19;19923;-60
2023/05/19 08:53:18;;;;;;;;;;;;;;;16.74;51.47;102489.75;7341679;19;20352;-60
2023/05/19 08:55:54;;;;;;;;;;;;;;;16.79;51.58;102482.63;7341562;19;19922;-59
2023/05/19 08:58:20;;;;;;;;;;;;;;;16.84;51.15;102478.13;7346202;19;19918;-59
2023/05/19 09:00:46;;;;;;;;;;;;;;;16.90;51.12;102478.88;7349308;19;20046;-59
2023/05/19 09:03:14;;;;;;;;;;;;;;;16.95;51.23;102479.66;7347082;19;19919;-60
2023/05/19 09:05:40;;;;;;;;;;;;;;;16.99;51.47;102476.94;7343441;19;20325;-59
2023/05/19 09:08:05;;;;;;;;;;;;;;;17.06;51.22;102475.03;7344074;19;19919;-60
2023/05/19 09:10:30;;;;;;;;;;;;;;;17.13;51.63;102476.59;7337240;19;20759;-60
2023/05/19 09:12:56;;;;;;;;;;;;;;;17.19;51.53;102473.84;7343130;19;20128;-60
2023/05/19 09:15:24;;;;;;;;;;;;;;;17.09;51.39;102432.72;7343137;19;19955;-60
2023/05/19 09:17:49;;;;;;;;;;;;;;;17.36;51.33;102457.63;7343394;19;19994;-60
2023/05/19 09:20:15;;;;;;;;;;;;;;;17.43;50.87;102453.06;7346899;19;19922;-60
2023/05/19 09:22:46;;;;;;;;;;;;;;;17.49;51.16;102458.22;7336555;19;19930;-60
2023/05/19 09:25:19;;;;;;;;;;;;;;;17.55;51.35;102463.34;7339936;19;20734;-60
2023/05/19 09:27:45;;;;;;;;;;;;;;;17.60;50.83;102459.69;7308691;19;19919;-60
2023/05/19 09:30:10;;;;;;;;;;;;;;;17.68;50.51;102462.13;7343206;19;19915;-60
2023/05/19 09:32:36;;;;;;;;;;;;;;;17.74;50.88;102463.78;7344412;19;20395;-60
2023/05/19 09:35:01;;;;;;;;;;;;;;;17.80;51.12;102464.53;7344429;19;19918;-59
2023/05/19 09:37:27;;;;;;;;;;;;;;;17.87;51.03;102466.09;7345330;19;20034;-60
2023/05/19 09:39:52;;;;;;;;;;;;;;;17.95;50.59;102462.41;7341735;19;19929;-60
2023/05/19 09:42:28;;;;;;;;;;;;;;;18.05;50.65;102469.22;7346300;19;19925;-60
2023/05/19 09:45:01;;;;;;;;;;;;;;;18.13;50.64;102457.50;7341382;19;19906;-60
2023/05/19 09:47:26;;;;;;;;;;;;;;;18.26;50.42;102468.63;7345536;19;20723;-60
2023/05/19 09:49:52;;;;;;;;;;;;;;;18.36;50.41;102470.13;7341189;19;19940;-60
2023/05/19 09:52:18;;;;;;;;;;;;;;;18.46;50.84;102469.88;7344377;19;19947;-60
2023/05/19 09:54:43;;;;;;;;;;;;;;;18.57;50.77;102473.97;7342950;19;19930;-60
2023/05/19 09:57:09;;;;;;;;;;;;;;;18.68;50.40;102476.34;7343180;19;19965;-60
2023/05/19 09:59:35;;;;;;;;;;;;;;;18.78;50.53;102476.94;7340663;19;19915;-60
2023/05/19 10:02:01;;;;;;;;;;;;;;;18.87;50.51;102481.97;7339825;19;19930;-60
2023/05/19 10:04:27;;;;;;;;;;;;;;;18.97;50.62;102466.69;7340504;19;19926;-60
2023/05/19 10:06:58;;;;;;;;;;;;;;;19.07;50.28;102468.16;7343775;19;19934;-60
2023/05/19 10:09:24;;;;;;;;;;;;;;;19.16;50.62;102470.53;7337689;19;19947;-60
2023/05/19 10:11:53;;;;;;;;;;;;;;;19.25;50.12;102472.00;7342650;19;20865;-60
2023/05/19 10:14:23;;;;;;;;;;;;;;;19.35;50.01;102479.63;7341476;19;19922;-60
2023/05/19 10:16:51;;;;;;;;;;;;;;;19.44;50.05;102463.44;7342419;19;19971;-60
2023/05/19 10:19:21;;;;;;;;;;;;;;;19.54;50.20;102468.44;7345107;19;19926;-61
2023/05/19 10:21:47;;;;;;;;;;;;;;;19.62;50.03;102477.06;7343558;19;19926;-60
2023/05/19 10:24:12;;;;;;;;;;;;;;;19.72;50.01;102483.81;7344234;19;20863;-60
2023/05/19 10:26:39;;;;;;;;;;;;;;;19.82;50.10;102474.63;7343934;19;19937;-61
2023/05/19 10:29:04;;;;;;;;;;;;;;;19.81;50.02;102450.81;7340570;19;19935;-61
2023/05/19 10:31:32;;;;;;;;;;;;;;;20.01;49.64;102463.38;7344112;19;19922;-60
2023/05/19 10:34:12;;;;;;;;;;;;;;;20.10;49.74;102468.38;7344398;19;20864;-60
2023/05/19 10:36:48;;;;;;;;;;;;;;;20.20;49.83;102464.50;7345797;19;19919;-60
2023/05/19 10:39:20;;;;;;;;;;;;;;;20.31;49.55;102464.97;7342504;19;19930;-60
2023/05/19 10:41:49;;;;;;;;;;;;;;;20.41;49.42;102465.53;7332475;19;19960;-60
2023/05/19 10:44:26;;;;;;;;;;;;;;;20.49;49.42;102470.59;7338338;19;19922;-60
2023/05/19 10:46:52;;;;;;;;;;;;;;;20.58;49.44;102462.28;7336867;19;20960;-60
2023/05/19 10:49:23;;;;;;;;;;;;;;;20.66;48.94;102473.50;7333280;19;19918;-60
2023/05/19 10:51:50;;;;;;;;;;;;;;;20.70;49.00;102461.84;7332830;19;20668;-60
2023/05/19 10:54:17;;;;;;;;;;;;;;;20.76;49.02;102479.34;7341352;19;20001;-62
2023/05/19 10:56:45;;;;;;;;;;;;;;;20.81;48.90;102472.06;7339970;19;20637;-60
2023/05/19 10:59:31;;;;;;;;;;;;;;;20.85;48.89;102477.19;7343069;19;19947;-59
2023/05/19 11:01:56;;;;;;;;;;;;;;;20.90;48.54;102479.69;7337572;19;19954;-60
2023/05/19 11:04:37;;;;;;;;;;;;;;;20.93;48.22;102477.78;7340316;19;19919;-60
2023/05/19 11:07:03;;;;;;;;;;;;;;;21.00;48.70;102475.75;7340848;19;19929;-60
2023/05/19 11:09:32;;;;;;;;;;;;;;;21.06;48.07;102472.00;7339893;19;20276;-60
2023/05/19 11:12:02;;;;;;;;;;;;;;;21.11;48.33;102476.22;7339897;19;20909;-61
2023/05/19 11:14:27;;;;;;;;;;;;;;;21.17;48.26;102470.66;7341268;19;20519;-61
2023/05/19 11:16:55;;;;;;;;;;;;;;;21.26;48.35;102485.38;7340516;19;19918;-60
2023/05/19 11:19:27;;;;;;;;;;;;;;;21.11;47.96;102449.66;7341821;19;19926;-61
2023/05/19 11:21:54;;;;;;;;;;;;;;;21.42;48.04;102478.56;7339759;19;20482;-60
2023/05/19 11:24:38;;;;;;;;;;;;;;;21.48;48.02;102480.97;7341627;19;19934;-61
2023/05/19 11:27:16;;;;;;;;;;;;;;;21.54;47.98;102478.97;7342472;19;19951;-60
2023/05/19 11:29:42;;;;;;;;;;;;;;;21.61;47.92;102483.16;7339727;19;19984;-60
2023/05/19 11:32:08;;;;;;;;;;;;;;;21.64;47.85;102486.53;7344638;19;19925;-60
2023/05/19 11:34:34;;;;;;;;;;;;;;;21.67;47.67;102490.88;7341876;19;19926;-60
2023/05/19 11:37:00;;;;;;;;;;;;;;;21.68;47.60;102481.94;7336966;19;19934;-61
2023/05/19 11:39:26;;;;;;;;;;;;;;;21.70;47.13;102485.44;7343208;19;20341;-60
2023/05/19 11:41:54;;;;;;;;;;;;;;;21.67;46.90;102477.56;7335005;19;20030;-60
2023/05/19 11:44:19;;;;;;;;;;;;;;;21.66;46.80;102483.81;7336004;19;20022;-60
2023/05/19 11:46:44;;;;;;;;;;;;;;;21.66;47.17;102478.50;7340076;19;20699;-60
2023/05/19 11:49:09;;;;;;;;;;;;;;;21.65;46.99;102472.31;7339373;19;20474;-60
2023/05/19 11:51:35;;;;;;;;;;;;;;;21.63;46.78;102475.97;7342745;19;19915;-60
2023/05/19 11:54:01;;;;;;;;;;;;;;;21.64;47.09;102478.53;7341685;19;20108;-61
2023/05/19 11:56:32;;;;;;;;;;;;;;;21.66;46.63;102483.81;7338013;19;19918;-60
2023/05/19 11:58:57;;;;;;;;;;;;;;;21.68;46.92;102476.63;7342513;19;19926;-60
2023/05/19 12:01:25;;;;;;;;;;;;;;;21.68;46.43;102476.63;7340153;19;19914;-60
2023/05/19 12:03:51;;;;;;;;;;;;;;;21.68;46.70;102484.59;7339294;19;20567;-61
2023/05/19 12:06:16;;;;;;;;;;;;;;;21.68;46.75;102482.81;7339902;19;19927;-60
2023/05/19 12:08:41;;;;;;;;;;;;;;;21.68;46.46;102479.28;7336347;19;20386;-60
2023/05/19 12:11:06;;;;;;;;;;;;;;;21.67;46.58;102480.22;7338395;19;20681;-60
2023/05/19 12:13:32;;;;;;;;;;;;;;;21.48;46.24;102440.22;7341817;19;19955;-61
2023/05/19 12:16:02;;;;;;;;;;;;;;;21.69;46.71;102473.91;7341797;19;19918;-60
2023/05/19 12:18:36;;;;;;;;;;;;;;;21.73;46.75;102475.50;7343509;19;19926;-60
2023/05/19 12:21:01;;;;;;;;;;;;;;;21.78;46.62;102467.34;7342572;19;20025;-60
2023/05/19 12:23:29;;;;;;;;;;;;;;;21.83;46.73;102465.34;7340676;19;19915;-60
2023/05/19 12:25:55;;;;;;;;;;;;;;;21.91;46.54;102473.91;7334927;19;19946;-60
2023/05/19 12:28:20;;;;;;;;;;;;;;;22.01;46.80;102469.91;7339681;19;19918;-60
2023/05/19 12:30:51;;;;;;;;;;;;;;;22.12;46.49;102481.94;7337668;19;19926;-61
2023/05/19 12:33:19;;;;;;;;;;;;;;;22.23;46.54;102477.00;7340760;19;19942;-61